Time;durP1;ratioP1;P1;durP2;ratioP2;P2;SDS_P1;SDS_P2;PMS_P1;PMS_P2;Temp;Humidity;BMP_temperature;BMP_pressure;BME280_temperature;BME280_humidity;BME280_pressure;Samples;Min_cycle;Max_cycle;Signal;HPM_P1;HPM_P2
2021/06/03 00:01:59;;;;;;;;;13.75;13.75;;;;;25.39;50.03;101075.53;5033444;28;45480;-62
2021/06/03 00:04:25;;;;;;;;;17.00;16.00;;;;;25.38;50.17;101076.50;5034438;28;45908;-63
2021/06/03 00:06:51;;;;;;;;;17.00;17.00;;;;;25.37;49.90;101066.63;5032914;28;47388;-61
2021/06/03 00:09:16;;;;;;;;;15.00;15.00;;;;;25.37;49.92;101072.06;5034546;28;45950;-62
2021/06/03 00:11:42;;;;;;;;;17.50;16.00;;;;;25.34;49.86;101075.03;5035656;28;45412;-63
2021/06/03 00:14:07;;;;;;;;;14.75;14.75;;;;;25.31;50.14;101075.28;5048353;28;45496;-62
2021/06/03 00:16:34;;;;;;;;;15.00;14.00;;;;;25.29;50.11;101074.53;5032460;28;47511;-62
2021/06/03 00:19:05;;;;;;;;;17.00;17.00;;;;;25.30;49.92;101069.97;5029984;28;45404;-62
2021/06/03 00:21:32;;;;;;;;;14.50;12.25;;;;;25.28;49.88;101074.63;5035178;28;45844;-62
2021/06/03 00:23:58;;;;;;;;;15.50;15.50;;;;;25.27;50.32;101081.06;5033737;28;45535;-64
2021/06/03 00:26:24;;;;;;;;;20.00;17.75;;;;;25.27;49.94;101081.91;5026858;28;48092;-63
2021/06/03 00:28:50;;;;;;;;;16.00;15.00;;;;;25.27;50.15;101081.91;5033846;28;45335;-62
2021/06/03 00:31:15;;;;;;;;;15.50;14.50;;;;;25.27;50.10;101075.63;5031778;28;45345;-61
2021/06/03 00:33:41;;;;;;;;;14.75;14.25;;;;;25.27;50.04;101081.06;5032216;28;45707;-62
2021/06/03 00:36:08;;;;;;;;;17.00;16.50;;;;;25.27;49.78;101086.47;5037484;28;47044;-63
2021/06/03 00:38:34;;;;;;;;;20.50;18.25;;;;;25.27;49.88;101091.91;5031251;28;45331;-62
2021/06/03 00:41:00;;;;;;;;;15.50;15.00;;;;;25.27;50.10;101089.19;5035528;28;45773;-63
2021/06/03 00:43:26;;;;;;;;;15.75;14.75;;;;;25.26;49.84;101091.06;5036273;28;45349;-63
2021/06/03 00:45:52;;;;;;;;;17.50;16.25;;;;;25.25;49.81;101092.03;5032254;28;46975;-62
2021/06/03 00:48:17;;;;;;;;;16.25;16.25;;;;;25.21;49.69;101091.41;5029977;28;45414;-64
2021/06/03 00:50:47;;;;;;;;;14.75;13.00;;;;;25.21;49.93;101099.56;5032042;28;45720;-62
2021/06/03 00:53:13;;;;;;;;;16.25;15.25;;;;;25.20;49.87;101097.84;5034955;28;45304;-63
2021/06/03 00:55:47;;;;;;;;;14.00;14.00;;;;;25.19;49.98;101112.41;5034919;28;47321;-62
2021/06/03 00:58:14;;;;;;;;;16.75;16.25;;;;;25.17;49.74;101111.66;5048966;28;45765;-63
2021/06/03 01:00:39;;;;;;;;;15.00;14.50;;;;;25.16;49.97;101101.78;5031209;28;45580;-63
2021/06/03 01:03:06;;;;;;;;;18.00;17.00;;;;;25.14;49.89;101102.84;5030819;28;45758;-62
2021/06/03 01:05:50;;;;;;;;;16.50;15.50;;;;;25.13;49.97;101098.41;5025207;28;48075;-62
2021/06/03 01:08:19;;;;;;;;;16.00;14.00;;;;;25.11;50.12;101109.41;5030866;28;45645;-63
2021/06/03 01:10:57;;;;;;;;;14.50;14.50;;;;;25.10;50.05;101106.81;5031729;28;45698;-62
2021/06/03 01:13:22;;;;;;;;;18.00;15.00;;;;;25.07;50.08;101104.31;5034071;28;45477;-62
2021/06/03 01:15:50;;;;;;;;;16.50;16.25;;;;;25.06;50.01;101108.91;5028665;28;47116;-62
2021/06/03 01:18:18;;;;;;;;;14.00;13.50;;;;;25.05;50.13;101112.59;5040491;28;45457;-62
2021/06/03 01:20:47;;;;;;;;;12.50;12.50;;;;;25.06;49.74;101118.91;5030528;28;45462;-62
2021/06/03 01:23:37;;;;;;;;;14.25;14.25;;;;;25.06;50.06;101113.47;5032408;28;45309;-63
2021/06/03 01:26:04;;;;;;;;;15.50;14.50;;;;;25.07;50.28;101115.19;5034898;28;48149;-63
2021/06/03 01:28:30;;;;;;;;;18.25;17.25;;;;;25.08;50.22;101125.06;5032535;28;45724;-63
2021/06/03 01:30:56;;;;;;;;;15.00;14.50;;;;;25.07;50.25;101123.34;5035554;28;45762;-63
2021/06/03 01:33:26;;;;;;;;;16.00;15.50;;;;;25.06;49.88;101127.91;5031421;28;45838;-63
2021/06/03 01:35:55;;;;;;;;;16.75;14.50;;;;;25.06;50.43;101132.47;5029048;28;46962;-62
2021/06/03 01:38:25;;;;;;;;;17.25;16.25;;;;;25.06;49.94;101127.03;5032715;28;45968;-63
2021/06/03 01:40:51;;;;;;;;;17.00;17.00;;;;;25.04;50.45;101129.00;5038713;28;45409;-63
2021/06/03 01:43:19;;;;;;;;;15.50;14.75;;;;;25.05;49.96;101134.31;5039023;28;45635;-62
2021/06/03 01:45:45;;;;;;;;;13.75;13.25;;;;;25.05;50.03;101130.75;5038542;28;48505;-62
2021/06/03 01:48:14;;;;;;;;;14.00;13.00;;;;;25.04;50.05;101131.72;5033742;28;45722;-63
2021/06/03 01:50:41;;;;;;;;;17.25;16.25;;;;;25.05;50.15;101130.75;5032600;28;45508;-63
2021/06/03 01:53:07;;;;;;;;;17.50;17.25;;;;;25.05;50.19;101131.59;5031132;28;45358;-63
2021/06/03 01:55:34;;;;;;;;;13.25;13.25;;;;;25.05;50.05;101137.03;5034250;28;48570;-62
2021/06/03 01:58:01;;;;;;;;;17.50;17.00;;;;;25.07;49.84;101140.50;5033766;28;45403;-62
2021/06/03 02:00:28;;;;;;;;;15.75;15.75;;;;;25.06;50.24;101143.34;5033352;28;45307;-62
2021/06/03 02:02:54;;;;;;;;;18.50;14.50;;;;;25.06;50.04;101146.06;5026653;28;45342;-62
2021/06/03 02:05:20;;;;;;;;;18.50;18.50;;;;;25.05;50.11;101150.63;5033987;28;45283;-62
2021/06/03 02:07:46;;;;;;;;;15.50;15.50;;;;;25.03;50.26;101144.44;5032593;28;45437;-62
2021/06/03 02:10:15;;;;;;;;;16.50;14.00;;;;;25.03;50.32;101148.97;5034113;28;45469;-62
2021/06/03 02:12:52;;;;;;;;;18.00;17.50;;;;;25.03;50.54;101146.25;5037352;28;45474;-63
2021/06/03 02:15:18;;;;;;;;;17.50;16.00;;;;;25.05;50.33;101152.47;5033312;28;46984;-63
2021/06/03 02:17:51;;;;;;;;;16.00;14.25;;;;;25.04;50.31;101148.03;5033832;28;45691;-63
2021/06/03 02:20:23;;;;;;;;;17.00;16.75;;;;;25.02;50.25;101147.25;5029990;28;45432;-62
2021/06/03 02:22:50;;;;;;;;;18.75;17.25;;;;;25.01;50.30;101149.09;5030403;28;45757;-63
2021/06/03 02:25:17;;;;;;;;;14.00;12.50;;;;;25.00;50.48;101155.47;5032408;28;47837;-63
2021/06/03 02:27:44;;;;;;;;;20.25;18.75;;;;;24.99;50.66;101151.03;5034953;28;45539;-62
2021/06/03 02:30:10;;;;;;;;;15.75;13.50;;;;;24.99;50.27;101153.75;5032684;28;45507;-62
2021/06/03 02:32:37;;;;;;;;;15.50;14.75;;;;;25.00;50.62;101152.75;5030262;28;46341;-62
2021/06/03 02:35:10;;;;;;;;;20.00;18.50;;;;;24.98;50.18;101157.44;5025850;28;47234;-62
2021/06/03 02:37:41;;;;;;;;;16.25;16.25;;;;;24.98;50.79;101156.56;5023143;28;46115;-62
2021/06/03 02:40:11;;;;;;;;;14.50;14.50;;;;;24.97;50.68;101154.84;5024311;28;45620;-62
2021/06/03 02:42:40;;;;;;;;;17.50;15.50;;;;;24.97;50.57;101158.44;5029965;28;45749;-62
2021/06/03 02:45:14;;;;;;;;;17.50;17.50;;;;;24.94;50.54;101155.94;5033706;28;46852;-62
2021/06/03 02:47:40;;;;;;;;;13.50;13.50;;;;;24.95;50.54;101160.41;5021787;28;45469;-62
2021/06/03 02:50:09;;;;;;;;;16.00;15.00;;;;;24.95;50.57;101163.09;5028556;28;45568;-62
2021/06/03 02:52:35;;;;;;;;;18.75;17.50;;;;;24.95;50.71;101157.69;5031341;28;45319;-62
2021/06/03 02:55:01;;;;;;;;;16.50;16.50;;;;;24.94;50.88;101166.81;5033261;28;48454;-62
2021/06/03 02:57:27;;;;;;;;;19.50;18.00;;;;;24.94;50.51;101169.53;5033514;28;45368;-62
2021/06/03 02:59:53;;;;;;;;;16.00;15.00;;;;;24.92;50.43;101166.06;5031657;28;45532;-62
2021/06/03 03:02:18;;;;;;;;;19.25;18.50;;;;;24.91;50.40;101176.06;5033260;28;45586;-62
2021/06/03 03:04:44;;;;;;;;;13.25;13.25;;;;;24.89;50.65;101163.56;5025092;28;47244;-62
2021/06/03 03:07:11;;;;;;;;;17.25;15.25;;;;;24.88;50.57;101172.69;5031916;28;48499;-62
2021/06/03 03:09:37;;;;;;;;;14.25;14.25;;;;;24.85;50.88;101171.06;5033028;28;45495;-62
2021/06/03 03:12:03;;;;;;;;;17.50;16.50;;;;;24.86;50.82;101172.78;5035082;28;45617;-62
2021/06/03 03:14:29;;;;;;;;;16.25;16.25;;;;;24.88;50.69;101169.97;5025883;28;49183;-62
2021/06/03 03:16:56;;;;;;;;;19.50;16.75;;;;;24.84;50.47;101171.19;5046870;28;45883;-62
2021/06/03 03:19:21;;;;;;;;;20.50;19.00;;;;;24.83;50.77;101173.03;5033212;28;45532;-62
2021/06/03 03:21:47;;;;;;;;;16.25;16.25;;;;;24.81;50.84;101183.16;5033436;28;45339;-62
2021/06/03 03:24:12;;;;;;;;;15.75;15.75;;;;;24.81;51.03;101180.44;5034273;28;48080;-62
2021/06/03 03:26:38;;;;;;;;;19.50;17.50;;;;;24.79;50.91;101186.97;5031262;28;45465;-62
2021/06/03 03:29:03;;;;;;;;;19.00;18.00;;;;;24.78;51.01;101185.22;5032354;28;45436;-62
2021/06/03 03:31:29;;;;;;;;;21.00;18.50;;;;;24.74;50.90;101187.28;5036098;28;45604;-62
2021/06/03 03:34:02;;;;;;;;;16.75;15.25;;;;;24.73;51.30;101190.09;5033737;28;47517;-62
2021/06/03 03:36:28;;;;;;;;;20.25;18.00;;;;;24.72;51.12;101186.53;5030256;28;46031;-61
2021/06/03 03:38:53;;;;;;;;;12.75;12.25;;;;;24.73;51.42;101199.13;5027469;28;48166;-60
2021/06/03 03:41:19;;;;;;;;;18.25;18.25;;;;;24.72;51.12;101196.53;5035270;28;45442;-60
2021/06/03 03:43:44;;;;;;;;;20.00;15.25;;;;;24.72;51.23;101200.09;5036363;28;46876;-62
2021/06/03 03:46:10;;;;;;;;;18.00;18.00;;;;;24.71;51.34;101203.78;5036534;28;45830;-60
2021/06/03 03:48:35;;;;;;;;;19.00;18.50;;;;;24.70;51.54;101199.34;5034674;28;45339;-62
2021/06/03 03:51:01;;;;;;;;;17.75;16.00;;;;;24.71;51.59;101213.78;5033567;28;45435;-62
2021/06/03 03:53:27;;;;;;;;;21.25;19.75;;;;;24.70;51.12;101215.63;5036386;28;45693;-62
2021/06/03 03:55:52;;;;;;;;;16.50;15.25;;;;;24.70;51.33;101207.50;5036728;28;45720;-62
2021/06/03 03:58:17;;;;;;;;;17.00;17.00;;;;;24.70;51.37;101221.06;5037381;28;45695;-62
2021/06/03 04:00:43;;;;;;;;;20.25;19.75;;;;;24.70;51.59;101218.34;5034151;28;45351;-62
2021/06/03 04:03:09;;;;;;;;;18.25;18.25;;;;;24.69;51.48;101218.47;5032084;28;48515;-62
2021/06/03 04:05:35;;;;;;;;;20.50;19.50;;;;;24.68;51.37;101216.72;5034324;28;45988;-62
2021/06/03 04:08:00;;;;;;;;;18.25;18.25;;;;;24.69;51.94;101224.75;5029317;28;46830;-62
2021/06/03 04:10:27;;;;;;;;;20.00;18.75;;;;;24.69;51.49;101234.75;5031071;28;45494;-62
2021/06/03 04:12:53;;;;;;;;;19.75;18.75;;;;;24.69;51.56;101237.47;5035892;28;47274;-62
2021/06/03 04:15:19;;;;;;;;;19.00;19.00;;;;;24.69;51.56;101238.31;5030506;28;45946;-62
2021/06/03 04:17:45;;;;;;;;;18.75;15.75;;;;;24.71;51.56;101240.94;5036428;28;45412;-61
2021/06/03 04:20:15;;;;;;;;;18.75;18.50;;;;;24.71;51.31;101236.38;5036344;28;45978;-61
2021/06/03 04:22:41;;;;;;;;;20.50;18.50;;;;;24.72;51.34;101243.53;5032611;28;47553;-61
2021/06/03 04:25:07;;;;;;;;;21.50;19.50;;;;;24.74;51.60;101246.13;5031899;28;45357;-61
2021/06/03 04:27:33;;;;;;;;;16.00;16.00;;;;;24.71;51.47;101251.78;5036288;28;45426;-63
2021/06/03 04:29:58;;;;;;;;;19.50;17.75;;;;;24.69;51.56;101248.31;5035404;28;45326;-61
2021/06/03 04:32:25;;;;;;;;;16.25;16.25;;;;;24.71;51.29;101255.38;5033079;28;47549;-61
2021/06/03 04:34:50;;;;;;;;;21.00;19.75;;;;;24.73;51.52;101253.41;5029795;28;45422;-62
2021/06/03 04:37:15;;;;;;;;;14.00;14.00;;;;;24.73;51.65;101249.81;5031969;28;45356;-62
2021/06/03 04:39:41;;;;;;;;;16.75;15.75;;;;;24.74;51.46;101252.41;5028383;28;45612;-62
2021/06/03 04:42:07;;;;;;;;;19.75;18.00;;;;;24.72;51.45;101256.22;5049750;28;46879;-62
2021/06/03 04:44:33;;;;;;;;;19.25;19.25;;;;;24.70;51.50;101256.34;5033579;28;45376;-62
2021/06/03 04:46:59;;;;;;;;;18.50;18.25;;;;;24.70;51.76;101252.75;5036208;28;45718;-62
2021/06/03 04:49:25;;;;;;;;;17.50;16.25;;;;;24.70;51.71;101255.47;5035337;28;45232;-62
2021/06/03 04:51:50;;;;;;;;;17.50;17.50;;;;;24.70;51.68;101256.34;5035656;28;47622;-62
2021/06/03 04:54:16;;;;;;;;;18.25;17.50;;;;;24.70;51.76;101256.34;5033173;28;45353;-62
2021/06/03 04:56:41;;;;;;;;;23.50;19.50;;;;;24.69;51.85;101260.03;5033221;28;45630;-62
2021/06/03 04:59:07;;;;;;;;;20.75;18.25;;;;;24.70;51.76;101260.91;5034435;28;45471;-62
2021/06/03 05:01:33;;;;;;;;;15.25;15.25;;;;;24.69;51.94;101260.03;5033893;28;48142;-62
2021/06/03 05:03:59;;;;;;;;;20.00;18.25;;;;;24.71;51.62;101258.06;5034709;28;45537;-62
2021/06/03 05:06:25;;;;;;;;;17.75;17.75;;;;;24.73;51.81;101255.25;5027684;28;45444;-62
2021/06/03 05:08:50;;;;;;;;;20.50;20.50;;;;;24.74;52.00;101259.69;5025902;28;46038;-62
2021/06/03 05:11:16;;;;;;;;;18.00;17.50;;;;;24.72;51.88;101250.81;5046970;28;45525;-62
2021/06/03 05:13:41;;;;;;;;;18.50;18.50;;;;;24.73;52.33;101260.69;5026645;28;45933;-62
2021/06/03 05:16:07;;;;;;;;;21.00;20.75;;;;;24.72;51.92;101259.81;5022487;28;45637;-63
2021/06/03 05:18:33;;;;;;;;;17.25;17.25;;;;;24.75;51.92;101258.72;5037102;28;45391;-62
2021/06/03 05:20:59;;;;;;;;;17.25;17.00;;;;;24.76;52.18;101264.03;5042209;28;47032;-62
2021/06/03 05:23:25;;;;;;;;;21.00;18.75;;;;;24.75;51.79;101265.00;5035847;28;45432;-63
2021/06/03 05:25:51;;;;;;;;;19.75;19.75;;;;;24.77;51.85;101268.47;5029916;28;45658;-63
2021/06/03 05:28:16;;;;;;;;;17.75;17.75;;;;;24.76;51.96;101264.03;5048575;28;45460;-62
2021/06/03 05:30:42;;;;;;;;;20.25;20.25;;;;;24.77;52.00;101270.31;5031480;28;47379;-63
2021/06/03 05:33:08;;;;;;;;;20.25;19.00;;;;;24.77;51.98;101267.59;5030439;28;45769;-63
2021/06/03 05:35:34;;;;;;;;;23.00;20.75;;;;;24.76;52.08;101288.47;5029915;28;45553;-63
2021/06/03 05:38:00;;;;;;;;;18.50;18.50;;;;;24.77;52.12;101284.75;5031255;28;48321;-61
2021/06/03 05:40:27;;;;;;;;;21.00;21.00;;;;;24.78;52.24;101285.66;5032178;28;48203;-62
2021/06/03 05:42:55;;;;;;;;;20.00;18.75;;;;;24.77;52.19;101281.19;5030737;28;45769;-62
2021/06/03 05:45:22;;;;;;;;;20.50;20.50;;;;;24.74;51.88;101279.56;5033517;28;45516;-62
2021/06/03 05:47:48;;;;;;;;;20.25;18.25;;;;;24.74;52.13;101284.13;5032678;28;45441;-62
2021/06/03 05:50:15;;;;;;;;;23.00;20.25;;;;;24.73;51.89;101290.53;5024805;28;48481;-62
2021/06/03 05:52:42;;;;;;;;;22.25;20.75;;;;;24.75;51.80;101283.16;5026539;28;46161;-62
2021/06/03 05:55:10;;;;;;;;;19.25;19.25;;;;;24.77;51.98;101283.91;5033848;28;45890;-62
2021/06/03 05:57:36;;;;;;;;;20.75;19.75;;;;;24.79;52.03;101280.13;5029366;28;45473;-62
2021/06/03 06:00:06;;;;;;;;;18.50;17.50;;;;;24.83;51.90;101295.19;5034659;28;47111;-62
2021/06/03 06:02:43;;;;;;;;;19.50;17.75;;;;;24.84;51.85;101301.50;5031923;28;45863;-62
2021/06/03 06:07:53;;;;;;;;;18.25;18.25;;;;;24.83;51.89;101292.47;5026127;28;46512;-63
2021/06/03 06:10:19;;;;;;;;;25.00;23.25;;;;;24.84;51.80;101286.06;5034198;28;47304;-63
2021/06/03 06:12:44;;;;;;;;;22.25;20.25;;;;;24.83;51.99;101289.75;5031456;28;45393;-63
2021/06/03 06:15:11;;;;;;;;;21.75;21.75;;;;;24.83;51.71;101297.03;5033266;28;45723;-61
2021/06/03 06:17:36;;;;;;;;;19.75;19.25;;;;;24.82;51.65;101298.03;5032572;28;45335;-61
2021/06/03 06:20:03;;;;;;;;;17.75;17.75;;;;;24.80;51.66;101303.56;5033149;28;45773;-62
2021/06/03 06:22:28;;;;;;;;;21.00;21.00;;;;;24.81;51.46;101299.88;5032712;28;46451;-62
2021/06/03 06:24:55;;;;;;;;;23.00;20.25;;;;;24.82;51.50;101306.16;5029074;28;45583;-62
2021/06/03 06:27:21;;;;;;;;;23.50;22.50;;;;;24.81;51.52;101299.88;5033315;28;45694;-62
2021/06/03 06:29:47;;;;;;;;;22.00;20.50;;;;;24.82;51.45;101311.59;5048463;28;48204;-62
2021/06/03 06:32:12;;;;;;;;;21.25;20.25;;;;;24.85;51.54;101305.94;5034433;28;45290;-65
2021/06/03 06:34:37;;;;;;;;;21.75;21.00;;;;;24.89;51.60;101316.47;5025765;28;45402;-62
2021/06/03 06:37:03;;;;;;;;;21.75;20.25;;;;;24.92;51.33;101316.25;5030660;28;45614;-62
2021/06/03 06:39:29;;;;;;;;;24.00;22.75;;;;;24.95;51.44;101315.16;5030903;28;47403;-62
2021/06/03 06:41:54;;;;;;;;;21.00;21.00;;;;;24.95;51.53;101316.03;5042031;28;45763;-62
2021/06/03 06:44:20;;;;;;;;;22.75;21.50;;;;;24.99;51.81;101318.50;5022691;28;45522;-62
2021/06/03 06:46:45;;;;;;;;;24.50;22.75;;;;;25.02;51.73;101315.59;5025318;28;45630;-62
2021/06/03 06:49:11;;;;;;;;;24.50;23.00;;;;;25.03;51.47;101311.91;5032309;28;48058;-62
2021/06/03 06:51:37;;;;;;;;;23.75;23.00;;;;;25.05;51.64;101319.00;5034537;28;45643;-62
2021/06/03 06:54:03;;;;;;;;;22.50;22.50;;;;;25.07;51.73;101324.31;5033127;28;45430;-63
2021/06/03 06:56:28;;;;;;;;;22.50;21.25;;;;;25.08;51.31;101323.31;5033429;28;47194;-62
2021/06/03 06:58:54;;;;;;;;;23.75;22.75;;;;;25.08;51.25;101318.75;5031325;28;45641;-62
2021/06/03 07:01:19;;;;;;;;;27.00;26.00;;;;;25.07;51.43;101327.88;5036192;28;45431;-62
2021/06/03 07:03:45;;;;;;;;;25.25;24.25;;;;;25.06;51.43;101328.00;5028096;28;45471;-63
2021/06/03 07:06:10;;;;;;;;;24.50;22.75;;;;;25.06;51.44;101322.56;5032110;28;45689;-62
2021/06/03 07:08:36;;;;;;;;;28.00;26.25;;;;;25.07;51.43;101330.59;5039522;28;46487;-63
2021/06/03 07:11:01;;;;;;;;;27.00;25.25;;;;;25.08;51.16;101321.47;5050420;28;45704;-62
2021/06/03 07:13:27;;;;;;;;;25.00;25.00;;;;;25.10;51.35;101330.38;5035246;28;45263;-62
2021/06/03 07:15:52;;;;;;;;;26.75;24.50;;;;;25.11;51.39;101332.09;5035695;28;45361;-62
2021/06/03 07:18:18;;;;;;;;;26.25;25.50;;;;;25.16;51.44;101332.66;5037068;28;47059;-63
2021/06/03 07:20:43;;;;;;;;;24.75;23.25;;;;;25.19;51.20;101337.84;5021724;28;45229;-65
2021/06/03 07:23:09;;;;;;;;;30.00;25.00;;;;;25.21;51.45;101335.03;5028851;28;45594;-63
2021/06/03 07:25:37;;;;;;;;;29.25;25.75;;;;;25.25;51.03;101333.81;5022402;28;45529;-61
2021/06/03 07:28:04;;;;;;;;;24.50;24.00;;;;;25.30;51.04;101338.94;5038076;28;47460;-61
2021/06/03 07:30:30;;;;;;;;;28.00;25.75;;;;;25.29;51.05;101329.91;5038606;28;45457;-62
2021/06/03 07:32:56;;;;;;;;;23.25;23.25;;;;;25.34;50.88;101329.56;5032419;28;45450;-62
2021/06/03 07:35:23;;;;;;;;;22.75;22.75;;;;;25.35;50.80;101334.88;5023968;28;45303;-63
2021/06/03 07:37:50;;;;;;;;;26.00;25.25;;;;;25.37;50.94;101329.31;5020231;28;47389;-64
2021/06/03 07:40:19;;;;;;;;;25.00;25.00;;;;;25.37;50.67;101332.03;5037090;28;45365;-62
2021/06/03 07:42:44;;;;;;;;;24.00;24.00;;;;;25.35;50.59;101334.00;5018978;28;45407;-64
2021/06/03 07:45:12;;;;;;;;;25.50;25.50;;;;;25.40;50.48;101339.97;5054535;28;45865;-63
2021/06/03 07:47:39;;;;;;;;;27.00;25.50;;;;;25.42;50.59;101340.75;5036854;28;47115;-63
2021/06/03 07:50:07;;;;;;;;;27.00;26.75;;;;;25.44;50.57;101339.63;5029407;28;45356;-63
2021/06/03 07:52:35;;;;;;;;;26.00;24.25;;;;;25.45;50.45;101340.50;5046989;28;45731;-63
2021/06/03 07:55:00;;;;;;;;;28.00;28.00;;;;;25.46;50.50;101347.66;5042348;28;45642;-63
2021/06/03 07:57:26;;;;;;;;;24.25;23.25;;;;;25.51;50.29;101345.47;5038176;28;47354;-63
2021/06/03 07:59:51;;;;;;;;;22.25;20.75;;;;;25.55;50.50;101347.00;5051644;28;45274;-63
2021/06/03 08:02:17;;;;;;;;;25.25;22.75;;;;;25.57;50.30;101347.75;5039702;28;45326;-62
2021/06/03 08:04:42;;;;;;;;;30.00;28.25;;;;;25.60;50.59;101346.66;5021237;28;45537;-62
2021/06/03 08:07:08;;;;;;;;;26.25;24.75;;;;;25.62;50.29;101353.69;5035520;28;46991;-62
2021/06/03 08:09:33;;;;;;;;;26.00;26.00;;;;;25.65;50.00;101358.03;5034239;28;45523;-63
2021/06/03 08:11:59;;;;;;;;;23.50;23.50;;;;;25.66;49.65;101360.63;5042939;28;45373;-62
2021/06/03 08:14:24;;;;;;;;;23.25;23.25;;;;;25.68;49.89;101360.53;5039860;28;45282;-63
2021/06/03 08:16:50;;;;;;;;;24.25;24.00;;;;;25.68;49.71;101364.13;5038594;28;47224;-64
2021/06/03 08:19:16;;;;;;;;;25.25;25.25;;;;;25.71;49.93;101368.50;5054818;28;45290;-61
2021/06/03 08:21:42;;;;;;;;;23.25;22.50;;;;;25.73;49.35;101353.78;5025223;28;45364;-62
2021/06/03 08:24:08;;;;;;;;;18.75;17.75;;;;;25.74;48.96;101363.69;5043645;28;45437;-62
2021/06/03 08:26:33;;;;;;;;;21.00;19.25;;;;;25.74;49.28;101357.38;5042040;28;47997;-62
2021/06/03 08:28:59;;;;;;;;;16.75;16.75;;;;;25.77;48.54;101368.03;5019921;28;45668;-62
2021/06/03 08:31:26;;;;;;;;;18.75;17.50;;;;;25.77;48.46;101370.72;5033104;28;45471;-62
2021/06/03 08:33:52;;;;;;;;;18.50;18.50;;;;;25.78;48.77;101378.78;5037296;28;45792;-62
2021/06/03 08:36:18;;;;;;;;;20.50;19.25;;;;;25.76;48.60;101367.16;5053379;28;48909;-63
2021/06/03 08:38:43;;;;;;;;;21.50;18.75;;;;;25.77;48.50;101373.44;5046121;28;45323;-65
2021/06/03 08:41:10;;;;;;;;;20.75;18.25;;;;;25.79;48.53;101376.91;5034209;28;45662;-63
2021/06/03 08:43:35;;;;;;;;;22.00;21.25;;;;;25.78;48.16;101373.34;5035393;28;45772;-62
2021/06/03 08:46:03;;;;;;;;;20.50;19.25;;;;;25.78;48.38;101373.34;5033427;28;48169;-62
2021/06/03 08:48:29;;;;;;;;;21.75;21.00;;;;;25.79;48.04;101363.31;5032385;28;45308;-62
2021/06/03 08:50:59;;;;;;;;;21.75;21.00;;;;;25.79;48.41;101369.66;5034100;28;45624;-62
2021/06/03 08:53:25;;;;;;;;;20.75;19.00;;;;;25.80;47.74;101367.81;5019689;28;45374;-62
2021/06/03 08:58:36;;;;;;;;;20.50;20.50;;;;;25.81;48.11;101367.69;5037512;28;45505;-62
2021/06/03 09:01:03;;;;;;;;;21.25;21.25;;;;;25.83;47.51;101364.84;5026615;28;45665;-64
2021/06/03 09:03:30;;;;;;;;;19.25;19.25;;;;;25.84;47.82;101358.44;5019402;28;45496;-63
2021/06/03 09:05:57;;;;;;;;;16.25;16.00;;;;;25.86;47.71;101364.63;5034176;28;47540;-62
2021/06/03 09:08:34;;;;;;;;;21.00;19.75;;;;;25.89;47.67;101367.09;5023836;28;45616;-63
2021/06/03 09:11:07;;;;;;;;;17.75;17.75;;;;;25.91;47.90;101362.41;5039433;28;45661;-62
2021/06/03 09:13:35;;;;;;;;;20.25;20.25;;;;;25.95;47.78;101363.06;5043056;28;49436;-63
2021/06/03 09:16:14;;;;;;;;;21.25;21.00;;;;;25.98;48.03;101358.25;5029528;28;48299;-62
2021/06/03 09:18:42;;;;;;;;;19.75;18.25;;;;;26.02;47.29;101365.19;5031367;28;45633;-63
2021/06/03 09:21:20;;;;;;;;;22.75;18.50;;;;;26.07;47.14;101370.28;5040543;28;45422;-63
2021/06/03 09:23:56;;;;;;;;;17.75;17.75;;;;;26.10;47.56;101370.91;5037562;28;45747;-62
2021/06/03 09:26:23;;;;;;;;;20.50;19.00;;;;;26.12;46.97;101368.06;5035755;28;46862;-64
2021/06/03 09:28:50;;;;;;;;;21.75;20.75;;;;;26.14;47.09;101363.38;5019513;28;45363;-62
2021/06/03 09:31:22;;;;;;;;;22.00;20.00;;;;;26.16;47.02;101364.13;5029354;28;45516;-62
2021/06/03 09:34:14;;;;;;;;;20.00;19.50;;;;;26.20;46.85;101362.06;5026334;28;45473;-62
2021/06/03 09:36:54;;;;;;;;;18.75;18.75;;;;;26.20;46.89;101356.59;5029240;28;46598;-62
2021/06/03 09:39:44;;;;;;;;;16.75;16.75;;;;;26.22;46.73;101357.34;5035305;28;45886;-62
2021/06/03 09:42:20;;;;;;;;;23.75;22.25;;;;;26.24;46.66;101355.38;5028252;28;45325;-63
2021/06/03 09:44:49;;;;;;;;;22.25;20.75;;;;;26.28;46.50;101362.31;5037815;28;45541;-63
2021/06/03 09:47:20;;;;;;;;;22.75;21.75;;;;;26.29;46.60;101356.75;5022849;28;47301;-63
2021/06/03 09:49:46;;;;;;;;;22.00;20.50;;;;;26.32;46.27;101356.53;5035774;28;46025;-63
2021/06/03 09:52:18;;;;;;;;;19.50;19.50;;;;;26.37;46.72;101356.19;5037808;28;45479;-63
2021/06/03 09:54:53;;;;;;;;;20.00;18.50;;;;;26.43;46.00;101363.03;5037682;28;45425;-63
2021/06/03 09:57:20;;;;;;;;;18.75;17.75;;;;;26.46;45.94;101352.75;5036577;28;47808;-63
2021/06/03 10:00:03;;;;;;;;;21.25;20.00;;;;;26.51;45.88;101358.69;5037460;28;45847;-63
2021/06/03 10:02:32;;;;;;;;;17.00;17.00;;;;;26.54;45.76;101360.31;5027819;28;45373;-62
2021/06/03 10:04:58;;;;;;;;;20.50;19.00;;;;;26.54;45.99;101360.31;5035634;28;45890;-63
2021/06/03 10:07:28;;;;;;;;;19.00;18.75;;;;;26.55;45.52;101359.31;5036709;28;48286;-62
2021/06/03 10:10:00;;;;;;;;;23.75;22.50;;;;;26.55;45.78;101357.50;5035907;28;45770;-63
2021/06/03 10:12:44;;;;;;;;;18.50;17.75;;;;;26.58;45.61;101365.41;5036850;28;45398;-62
2021/06/03 10:15:39;;;;;;;;;18.75;17.75;;;;;26.62;45.39;101372.34;5036508;28;45458;-62
2021/06/03 10:18:17;;;;;;;;;18.50;18.25;;;;;26.65;46.06;101358.47;5051465;28;48240;-63
2021/06/03 10:20:47;;;;;;;;;18.75;18.75;;;;;26.72;45.64;101349.84;5031548;28;45343;-62
2021/06/03 10:23:20;;;;;;;;;20.00;20.00;;;;;26.75;45.37;101350.44;5031575;28;45709;-63
2021/06/03 10:25:47;;;;;;;;;19.50;19.25;;;;;26.77;45.10;101339.44;5026669;28;45348;-63
2021/06/03 10:28:15;;;;;;;;;22.00;21.00;;;;;26.79;44.89;101343.75;5037592;28;47044;-63
2021/06/03 10:30:52;;;;;;;;;18.50;17.50;;;;;26.79;45.15;101349.22;5049016;28;46206;-64
2021/06/03 10:33:20;;;;;;;;;21.75;21.00;;;;;26.79;45.03;101351.06;5046184;28;45369;-63
2021/06/03 10:35:49;;;;;;;;;21.50;21.50;;;;;26.80;44.61;101347.34;5037363;28;45546;-64
2021/06/03 10:38:14;;;;;;;;;17.25;17.25;;;;;26.81;45.21;101341.81;5035794;28;48270;-63
2021/06/03 10:40:47;;;;;;;;;21.50;21.00;;;;;26.84;45.26;101351.59;5033796;28;45381;-65
2021/06/03 10:43:14;;;;;;;;;17.50;16.50;;;;;26.84;44.72;101341.56;5039107;28;46551;-63
2021/06/03 10:45:41;;;;;;;;;18.75;17.00;;;;;26.86;45.00;101349.59;5043499;28;45613;-63
2021/06/03 10:48:07;;;;;;;;;20.00;18.75;;;;;26.86;44.18;101349.59;5035981;28;47168;-62
2021/06/03 10:50:41;;;;;;;;;19.50;17.75;;;;;26.85;44.25;101348.72;5050902;28;45586;-62
2021/06/03 10:53:09;;;;;;;;;17.75;16.75;;;;;26.85;44.65;101351.47;5034953;28;45291;-63
2021/06/03 10:55:39;;;;;;;;;20.25;19.50;;;;;26.86;44.56;101350.47;5042934;28;45721;-63
2021/06/03 10:58:08;;;;;;;;;16.25;15.25;;;;;26.85;44.37;101351.47;5038770;28;47289;-62
2021/06/03 11:00:43;;;;;;;;;18.75;18.75;;;;;26.82;43.97;101348.97;5028041;28;45500;-64
2021/06/03 11:03:16;;;;;;;;;19.25;18.75;;;;;26.81;44.45;101347.25;5020750;28;45607;-63
2021/06/03 11:05:47;;;;;;;;;18.25;17.00;;;;;26.79;44.18;101351.94;5035405;28;45769;-63
2021/06/03 11:08:28;;;;;;;;;21.50;18.25;;;;;26.77;43.89;101348.47;5033696;28;47268;-64
2021/06/03 11:11:14;;;;;;;;;17.75;17.25;;;;;26.78;44.29;101349.34;5049334;28;45491;-63
2021/06/03 11:13:46;;;;;;;;;17.75;17.75;;;;;26.77;44.46;101353.03;5030898;28;45509;-63
2021/06/03 11:16:25;;;;;;;;;16.25;16.00;;;;;26.77;44.36;101339.44;5031161;28;45619;-62
2021/06/03 11:18:55;;;;;;;;;22.00;22.00;;;;;26.80;44.69;101339.19;5047031;28;47338;-63